sensor_id;sensor_type;location;lat;lon;timestamp;pressure;altitude;pressure_sealevel;temperature;humidity
57594;BME280;43423;46.510;6.686;2023-07-20T00:00:25;96384.53;;;22.16;50.99
57594;BME280;43423;46.510;6.686;2023-07-20T00:03:14;96386.41;;;22.13;50.92
57594;BME280;43423;46.510;6.686;2023-07-20T00:05:45;96378.19;;;22.23;50.61
57594;BME280;43423;46.510;6.686;2023-07-20T00:08:11;96381.91;;;22.18;50.76
57594;BME280;43423;46.510;6.686;2023-07-20T00:10:36;96391.81;;;22.26;50.83
57594;BME280;43423;46.510;6.686;2023-07-20T00:13:02;96384.53;;;22.16;50.70
57594;BME280;43423;46.510;6.686;2023-07-20T00:15:28;96388.06;;;22.09;50.72
57594;BME280;43423;46.510;6.686;2023-07-20T00:17:53;96390.88;;;22.09;51.36
57594;BME280;43423;46.510;6.686;2023-07-20T00:20:19;96384.47;;;21.85;51.54
57594;BME280;43423;46.510;6.686;2023-07-20T00:22:44;96380.38;;;21.94;52.00
57594;BME280;43423;46.510;6.686;2023-07-20T00:25:10;96384.88;;;21.97;51.70
57594;BME280;43423;46.510;6.686;2023-07-20T00:27:37;96382.25;;;21.91;52.10
57594;BME280;43423;46.510;6.686;2023-07-20T00:30:04;96394.38;;;21.94;51.71
57594;BME280;43423;46.510;6.686;2023-07-20T00:32:29;96377.56;;;21.94;51.42
57594;BME280;43423;46.510;6.686;2023-07-20T00:34:55;96388.06;;;22.09;51.32
57594;BME280;43423;46.510;6.686;2023-07-20T00:37:20;96391.22;;;21.97;51.18
57594;BME280;43423;46.510;6.686;2023-07-20T00:39:46;96388.19;;;21.95;51.79
57594;BME280;43423;46.510;6.686;2023-07-20T00:42:11;96389.72;;;21.89;51.40
57594;BME280;43423;46.510;6.686;2023-07-20T00:44:37;96394.00;;;21.90;52.34
57594;BME280;43423;46.510;6.686;2023-07-20T00:47:03;96389.66;;;21.73;52.02
57594;BME280;43423;46.510;6.686;2023-07-20T00:49:29;96391.19;;;21.82;51.75
57594;BME280;43423;46.510;6.686;2023-07-20T00:51:54;96396.19;;;21.76;52.59
57594;BME280;43423;46.510;6.686;2023-07-20T00:54:20;96390.41;;;21.74;52.29
57594;BME280;43423;46.510;6.686;2023-07-20T00:56:46;96389.28;;;21.77;52.45
57594;BME280;43423;46.510;6.686;2023-07-20T00:59:13;96395.28;;;21.81;52.26
57594;BME280;43423;46.510;6.686;2023-07-20T01:01:38;96389.16;;;21.98;51.75
57594;BME280;43423;46.510;6.686;2023-07-20T01:04:04;96384.84;;;21.89;51.71
57594;BME280;43423;46.510;6.686;2023-07-20T01:06:38;96384.44;;;21.78;52.22
57594;BME280;43423;46.510;6.686;2023-07-20T01:11:54;96387.81;;;21.76;52.27
57594;BME280;43423;46.510;6.686;2023-07-20T01:14:23;96377.94;;;21.83;52.19
57594;BME280;43423;46.510;6.686;2023-07-20T01:16:50;96384.03;;;21.66;52.30
57594;BME280;43423;46.510;6.686;2023-07-20T01:19:17;96387.78;;;21.68;52.06
57594;BME280;43423;46.510;6.686;2023-07-20T01:22:07;96381.59;;;21.62;52.30
57594;BME280;43423;46.510;6.686;2023-07-20T01:30:59;96376.97;;;21.80;51.86
57594;BME280;43423;46.510;6.686;2023-07-20T01:33:29;96372.09;;;21.58;52.97
57594;BME280;43423;46.510;6.686;2023-07-20T01:35:58;96383.00;;;21.40;52.88
57594;BME280;43423;46.510;6.686;2023-07-20T01:38:25;96377.47;;;21.56;52.53
57594;BME280;43423;46.510;6.686;2023-07-20T01:40:51;96374.34;;;21.67;52.34
57594;BME280;43423;46.510;6.686;2023-07-20T01:43:17;96366.50;;;21.58;52.51
57594;BME280;43423;46.510;6.686;2023-07-20T01:45:43;96371.41;;;21.29;53.94
57594;BME280;43423;46.510;6.686;2023-07-20T01:48:09;96368.97;;;21.25;53.88
57594;BME280;43423;46.510;6.686;2023-07-20T01:50:35;96360.84;;;21.42;53.29
57594;BME280;43423;46.510;6.686;2023-07-20T01:53:01;96353.94;;;21.43;53.41
57594;BME280;43423;46.510;6.686;2023-07-20T01:55:26;96361.94;;;21.39;53.66
57594;BME280;43423;46.510;6.686;2023-07-20T01:57:52;96360.25;;;21.36;53.27
57594;BME280;43423;46.510;6.686;2023-07-20T02:00:18;96368.84;;;21.38;53.59
57594;BME280;43423;46.510;6.686;2023-07-20T02:02:46;96363.38;;;21.25;53.55
57594;BME280;43423;46.510;6.686;2023-07-20T02:05:12;96363.81;;;21.44;53.25
57594;BME280;43423;46.510;6.686;2023-07-20T02:07:37;96361.16;;;21.31;53.29
57594;BME280;43423;46.510;6.686;2023-07-20T02:10:03;96366.50;;;21.58;52.58
57594;BME280;43423;46.510;6.686;2023-07-20T02:12:29;96368.06;;;21.30;53.16
57594;BME280;43423;46.510;6.686;2023-07-20T02:14:55;96366.22;;;21.40;53.33
57594;BME280;43423;46.510;6.686;2023-07-20T02:17:21;96373.47;;;21.28;53.19
57594;BME280;43423;46.510;6.686;2023-07-20T02:19:46;96366.28;;;21.12;53.74
57594;BME280;43423;46.510;6.686;2023-07-20T02:22:14;96371.66;;;21.46;52.46
57594;BME280;43423;46.510;6.686;2023-07-20T02:24:40;96372.72;;;21.28;53.01
57594;BME280;43423;46.510;6.686;2023-07-20T02:27:06;96372.59;;;21.41;52.95
57594;BME280;43423;46.510;6.686;2023-07-20T02:29:32;96368.13;;;21.09;53.42
57594;BME280;43423;46.510;6.686;2023-07-20T02:31:59;96370.97;;;21.25;52.99
57594;BME280;43423;46.510;6.686;2023-07-20T02:34:24;96366.28;;;21.12;53.96
57594;BME280;43423;46.510;6.686;2023-07-20T02:36:50;96368.81;;;20.95;54.15
57594;BME280;43423;46.510;6.686;2023-07-20T02:39:15;96372.28;;;21.24;53.34
57594;BME280;43423;46.510;6.686;2023-07-20T02:41:41;96370.06;;;20.86;54.15
57594;BME280;43423;46.510;6.686;2023-07-20T02:44:07;96378.13;;;20.97;54.39
57594;BME280;43423;46.510;6.686;2023-07-20T02:46:32;96380.03;;;21.02;53.66
57594;BME280;43423;46.510;6.686;2023-07-20T02:48:58;96386.16;;;21.37;53.55
57594;BME280;43423;46.510;6.686;2023-07-20T02:51:23;96382.88;;;21.10;54.40
57594;BME280;43423;46.510;6.686;2023-07-20T02:53:49;96381.72;;;20.48;56.49
57594;BME280;43423;46.510;6.686;2023-07-20T02:56:14;96378.50;;;20.65;56.36
57594;BME280;43423;46.510;6.686;2023-07-20T02:58:41;96377.97;;;20.74;55.80
57594;BME280;43423;46.510;6.686;2023-07-20T03:01:11;96380.44;;;21.14;53.50
57594;BME280;43423;46.510;6.686;2023-07-20T03:03:38;96373.03;;;21.24;53.58
57594;BME280;43423;46.510;6.686;2023-07-20T03:06:06;96386.38;;;20.74;54.89
57594;BME280;43423;46.510;6.686;2023-07-20T03:08:34;96382.69;;;21.15;54.39
57594;BME280;43423;46.510;6.686;2023-07-20T03:11:00;96384.03;;;20.86;55.16
57594;BME280;43423;46.510;6.686;2023-07-20T03:13:26;96383.00;;;21.04;54.58
57594;BME280;43423;46.510;6.686;2023-07-20T03:15:53;96384.56;;;20.84;55.17
57594;BME280;43423;46.510;6.686;2023-07-20T03:18:18;96381.28;;;20.65;55.97
57594;BME280;43423;46.510;6.686;2023-07-20T03:20:44;96388.94;;;21.01;54.35
57594;BME280;43423;46.510;6.686;2023-07-20T03:23:10;96381.56;;;20.82;55.28
57594;BME280;43423;46.510;6.686;2023-07-20T03:25:35;96387.66;;;21.02;54.13
57594;BME280;43423;46.510;6.686;2023-07-20T03:28:03;96391.06;;;20.79;54.56
57594;BME280;43423;46.510;6.686;2023-07-20T03:30:28;96389.97;;;20.82;54.78
57594;BME280;43423;46.510;6.686;2023-07-20T03:32:54;96388.47;;;20.81;54.69
57594;BME280;43423;46.510;6.686;2023-07-20T03:35:19;96384.50;;;20.77;55.26
57594;BME280;43423;46.510;6.686;2023-07-20T03:37:45;96379.88;;;20.79;54.97
57594;BME280;43423;46.510;6.686;2023-07-20T03:40:11;96379.66;;;20.77;54.78
57594;BME280;43423;46.510;6.686;2023-07-20T03:42:36;96383.13;;;20.62;55.02
57594;BME280;43423;46.510;6.686;2023-07-20T03:45:05;96387.16;;;20.54;55.56
57594;BME280;43423;46.510;6.686;2023-07-20T03:47:31;96388.06;;;20.49;55.65
57594;BME280;43423;46.510;6.686;2023-07-20T03:49:57;96385.31;;;20.35;56.06
57594;BME280;43423;46.510;6.686;2023-07-20T03:52:23;96392.53;;;20.31;56.49
57594;BME280;43423;46.510;6.686;2023-07-20T03:54:49;96380.88;;;20.19;56.42
57594;BME280;43423;46.510;6.686;2023-07-20T03:57:17;96386.81;;;20.16;56.78
57594;BME280;43423;46.510;6.686;2023-07-20T03:59:45;96387.31;;;20.06;56.85
57594;BME280;43423;46.510;6.686;2023-07-20T04:02:10;96385.66;;;20.11;56.81
57594;BME280;43423;46.510;6.686;2023-07-20T04:04:36;96381.63;;;20.20;56.69
57594;BME280;43423;46.510;6.686;2023-07-20T04:07:01;96384.84;;;20.24;56.48
57594;BME280;43423;46.510;6.686;2023-07-20T04:09:27;96389.00;;;20.30;56.25
57594;BME280;43423;46.510;6.686;2023-07-20T04:11:52;96385.09;;;20.33;56.27
57594;BME280;43423;46.510;6.686;2023-07-20T04:14:18;96389.59;;;20.36;55.78
57594;BME280;43423;46.510;6.686;2023-07-20T04:16:46;96390.97;;;20.22;56.33
57594;BME280;43423;46.510;6.686;2023-07-20T04:19:12;96397.44;;;20.38;55.94
57594;BME280;43423;46.510;6.686;2023-07-20T04:21:41;96393.44;;;20.47;55.46
57594;BME280;43423;46.510;6.686;2023-07-20T04:24:07;96391.19;;;20.45;55.48
57594;BME280;43423;46.510;6.686;2023-07-20T04:26:32;96392.16;;;20.48;55.26
57594;BME280;43423;46.510;6.686;2023-07-20T04:28:58;96387.28;;;20.27;55.88
57594;BME280;43423;46.510;6.686;2023-07-20T04:31:25;96393.22;;;20.24;56.21
57594;BME280;43423;46.510;6.686;2023-07-20T04:33:50;96389.41;;;20.34;55.47
57594;BME280;43423;46.510;6.686;2023-07-20T04:36:16;96386.97;;;20.31;55.45
57594;BME280;43423;46.510;6.686;2023-07-20T04:38:47;96386.16;;;20.23;56.11
57594;BME280;43423;46.510;6.686;2023-07-20T04:41:13;96381.69;;;20.27;56.23
57594;BME280;43423;46.510;6.686;2023-07-20T04:43:43;96377.53;;;20.21;57.36
57594;BME280;43423;46.510;6.686;2023-07-20T04:46:10;96387.41;;;20.43;56.27
57594;BME280;43423;46.510;6.686;2023-07-20T04:48:36;96387.41;;;20.43;55.97
57594;BME280;43423;46.510;6.686;2023-07-20T04:51:02;96383.47;;;20.38;56.09
57594;BME280;43423;46.510;6.686;2023-07-20T04:53:28;96378.19;;;20.48;56.22
57594;BME280;43423;46.510;6.686;2023-07-20T04:55:54;96370.66;;;20.43;56.23
57594;BME280;43423;46.510;6.686;2023-07-20T04:58:20;96372.09;;;20.36;57.16
57594;BME280;43423;46.510;6.686;2023-07-20T05:00:47;96374.13;;;20.35;56.92
57594;BME280;43423;46.510;6.686;2023-07-20T05:03:13;96379.19;;;20.58;55.76
57594;BME280;43423;46.510;6.686;2023-07-20T05:05:39;96375.59;;;20.50;56.76
57594;BME280;43423;46.510;6.686;2023-07-20T05:08:04;96375.44;;;20.34;57.93
57594;BME280;43423;46.510;6.686;2023-07-20T05:10:30;96373.13;;;20.25;58.59
57594;BME280;43423;46.510;6.686;2023-07-20T05:12:56;96383.41;;;20.30;58.39
57594;BME280;43423;46.510;6.686;2023-07-20T05:15:21;96383.19;;;20.70;56.17
57594;BME280;43423;46.510;6.686;2023-07-20T05:17:47;96388.88;;;20.85;55.65
57594;BME280;43423;46.510;6.686;2023-07-20T05:20:14;96372.06;;;20.78;56.19
57594;BME280;43423;46.510;6.686;2023-07-20T05:22:40;96384.69;;;20.71;56.62
57594;BME280;43423;46.510;6.686;2023-07-20T05:25:07;96371.66;;;20.74;56.22
57594;BME280;43423;46.510;6.686;2023-07-20T05:27:34;96379.53;;;20.83;55.99
57594;BME280;43423;46.510;6.686;2023-07-20T05:30:00;96378.59;;;20.80;56.02
57594;BME280;43423;46.510;6.686;2023-07-20T05:32:26;96384.22;;;20.88;56.22
57594;BME280;43423;46.510;6.686;2023-07-20T05:34:52;96376.97;;;20.92;55.99
57594;BME280;43423;46.510;6.686;2023-07-20T05:37:19;96374.88;;;21.22;54.91
57594;BME280;43423;46.510;6.686;2023-07-20T05:39:45;96376.34;;;21.15;55.19
57594;BME280;43423;46.510;6.686;2023-07-20T05:42:10;96374.97;;;21.29;54.92
57594;BME280;43423;46.510;6.686;2023-07-20T05:44:36;96384.28;;;21.32;54.22
57594;BME280;43423;46.510;6.686;2023-07-20T05:47:02;96372.63;;;21.12;55.58
57594;BME280;43423;46.510;6.686;2023-07-20T05:49:28;96377.09;;;21.15;56.28
57594;BME280;43423;46.510;6.686;2023-07-20T05:51:54;96375.25;;;21.18;56.36
57594;BME280;43423;46.510;6.686;2023-07-20T05:54:21;96374.63;;;21.40;55.79
57594;BME280;43423;46.510;6.686;2023-07-20T05:56:46;96377.88;;;21.60;54.80
57594;BME280;43423;46.510;6.686;2023-07-20T05:59:13;96368.34;;;21.63;54.30
57594;BME280;43423;46.510;6.686;2023-07-20T06:01:38;96384.41;;;21.62;55.38
57594;BME280;43423;46.510;6.686;2023-07-20T06:04:04;96386.88;;;21.73;54.50
57594;BME280;43423;46.510;6.686;2023-07-20T06:06:29;96379.91;;;21.59;55.80
57594;BME280;43423;46.510;6.686;2023-07-20T06:08:55;96387.06;;;21.83;55.36
57594;BME280;43423;46.510;6.686;2023-07-20T06:11:20;96381.13;;;21.94;54.73
57594;BME280;43423;46.510;6.686;2023-07-20T06:13:46;96384.13;;;21.96;54.64
57594;BME280;43423;46.510;6.686;2023-07-20T06:16:11;96376.88;;;22.09;53.93
57594;BME280;43423;46.510;6.686;2023-07-20T06:18:37;96375.00;;;22.11;54.56
57594;BME280;43423;46.510;6.686;2023-07-20T06:21:03;96368.09;;;22.35;53.75
57594;BME280;43423;46.510;6.686;2023-07-20T06:23:29;96373.72;;;22.35;53.68
57594;BME280;43423;46.510;6.686;2023-07-20T06:25:54;96375.41;;;22.23;53.95
57594;BME280;43423;46.510;6.686;2023-07-20T06:28:20;96366.56;;;21.96;54.74
57594;BME280;43423;46.510;6.686;2023-07-20T06:30:46;96377.41;;;22.07;53.38
57594;BME280;43423;46.510;6.686;2023-07-20T06:33:11;96369.72;;;21.92;53.20
57594;BME280;43423;46.510;6.686;2023-07-20T06:35:37;96376.63;;;21.91;55.08
57594;BME280;43423;46.510;6.686;2023-07-20T06:38:03;96375.16;;;21.90;54.50
57594;BME280;43423;46.510;6.686;2023-07-20T06:40:30;96378.56;;;22.19;53.09
57594;BME280;43423;46.510;6.686;2023-07-20T06:43:02;96372.03;;;22.40;52.49
57594;BME280;43423;46.510;6.686;2023-07-20T06:45:28;96374.47;;;22.28;54.21
57594;BME280;43423;46.510;6.686;2023-07-20T06:47:53;96381.16;;;22.10;52.96
57594;BME280;43423;46.510;6.686;2023-07-20T06:50:19;96366.94;;;21.92;54.51
57594;BME280;43423;46.510;6.686;2023-07-20T06:52:45;96376.41;;;21.74;54.56
57594;BME280;43423;46.510;6.686;2023-07-20T06:55:13;96373.19;;;21.62;55.11
57594;BME280;43423;46.510;6.686;2023-07-20T06:57:38;96376.59;;;21.68;56.06
57594;BME280;43423;46.510;6.686;2023-07-20T07:00:04;96373.94;;;21.55;55.53
57594;BME280;43423;46.510;6.686;2023-07-20T07:02:32;96370.47;;;21.85;55.93
57594;BME280;43423;46.510;6.686;2023-07-20T07:04:57;96371.19;;;21.78;55.71
57594;BME280;43423;46.510;6.686;2023-07-20T07:07:23;96369.41;;;22.19;54.57
57594;BME280;43423;46.510;6.686;2023-07-20T07:09:48;96367.75;;;22.39;54.42
57594;BME280;43423;46.510;6.686;2023-07-20T07:12:15;96368.88;;;22.36;53.62
57594;BME280;43423;46.510;6.686;2023-07-20T07:14:41;96370.91;;;22.58;55.11
57594;BME280;43423;46.510;6.686;2023-07-20T07:17:13;96375.00;;;22.65;54.53
57594;BME280;43423;46.510;6.686;2023-07-20T07:19:39;96372.59;;;22.61;54.29
57594;BME280;43423;46.510;6.686;2023-07-20T07:22:09;96366.03;;;22.51;54.23
57594;BME280;43423;46.510;6.686;2023-07-20T07:24:36;96369.03;;;22.91;52.93
57594;BME280;43423;46.510;6.686;2023-07-20T07:27:05;96360.44;;;22.66;53.38
57594;BME280;43423;46.510;6.686;2023-07-20T07:29:31;96370.69;;;22.94;53.00
57594;BME280;43423;46.510;6.686;2023-07-20T07:31:57;96360.16;;;23.18;54.46
57594;BME280;43423;46.510;6.686;2023-07-20T07:34:23;96362.97;;;23.65;53.46
57594;BME280;43423;46.510;6.686;2023-07-20T07:36:49;96361.31;;;23.55;53.29
57594;BME280;43423;46.510;6.686;2023-07-20T07:39:15;96359.69;;;23.36;51.22
57594;BME280;43423;46.510;6.686;2023-07-20T07:41:40;96361.56;;;23.42;53.33
57594;BME280;43423;46.510;6.686;2023-07-20T07:44:06;96367.44;;;23.68;53.07
57594;BME280;43423;46.510;6.686;2023-07-20T07:46:31;96366.28;;;23.79;52.50
57594;BME280;43423;46.510;6.686;2023-07-20T07:48:57;96365.59;;;23.96;51.93
57594;BME280;43423;46.510;6.686;2023-07-20T07:51:23;96357.38;;;23.58;52.15
57594;BME280;43423;46.510;6.686;2023-07-20T07:53:49;96351.59;;;23.56;53.08
57594;BME280;43423;46.510;6.686;2023-07-20T07:56:15;96348.28;;;23.42;53.53
57594;BME280;43423;46.510;6.686;2023-07-20T07:58:45;96346.03;;;23.81;52.54
57594;BME280;43423;46.510;6.686;2023-07-20T08:01:11;96346.97;;;23.83;53.60
57594;BME280;43423;46.510;6.686;2023-07-20T08:03:36;96347.03;;;23.68;51.60
57594;BME280;43423;46.510;6.686;2023-07-20T08:06:02;96344.22;;;23.68;53.39
57594;BME280;43423;46.510;6.686;2023-07-20T08:08:32;96346.34;;;23.52;53.50
57594;BME280;43423;46.510;6.686;2023-07-20T08:11:01;96333.41;;;23.64;55.01
57594;BME280;43423;46.510;6.686;2023-07-20T08:13:29;96337.78;;;23.83;53.09
57594;BME280;43423;46.510;6.686;2023-07-20T08:15:55;96347.56;;;24.07;52.49
57594;BME280;43423;46.510;6.686;2023-07-20T08:18:24;96340.72;;;23.92;52.90
57594;BME280;43423;46.510;6.686;2023-07-20T08:20:50;96336.81;;;23.55;53.71
57594;BME280;43423;46.510;6.686;2023-07-20T08:23:16;96336.66;;;23.46;53.60
57594;BME280;43423;46.510;6.686;2023-07-20T08:25:44;96343.25;;;24.06;53.52
57594;BME280;43423;46.510;6.686;2023-07-20T08:28:11;96346.16;;;23.90;53.86
57594;BME280;43423;46.510;6.686;2023-07-20T08:30:42;96348.66;;;24.36;53.18
57594;BME280;43423;46.510;6.686;2023-07-20T08:33:18;96337.63;;;24.06;52.55
57594;BME280;43423;46.510;6.686;2023-07-20T08:35:48;96342.03;;;24.66;52.42
57594;BME280;43423;46.510;6.686;2023-07-20T08:38:14;96341.69;;;24.79;50.70
57594;BME280;43423;46.510;6.686;2023-07-20T08:40:46;96339.22;;;24.16;53.41
57594;BME280;43423;46.510;6.686;2023-07-20T08:43:12;96341.75;;;24.30;51.84
57594;BME280;43423;46.510;6.686;2023-07-20T08:45:40;96341.75;;;24.30;52.00
57594;BME280;43423;46.510;6.686;2023-07-20T08:48:07;96332.81;;;24.23;51.27
57594;BME280;43423;46.510;6.686;2023-07-20T08:50:34;96331.78;;;23.86;52.13
57594;BME280;43423;46.510;6.686;2023-07-20T08:53:00;96331.59;;;24.09;50.74
57594;BME280;43423;46.510;6.686;2023-07-20T08:55:27;96324.69;;;24.10;51.44
57594;BME280;43423;46.510;6.686;2023-07-20T08:57:56;96324.81;;;23.95;47.97
57594;BME280;43423;46.510;6.686;2023-07-20T09:00:23;96323.81;;;24.00;47.60
57594;BME280;43423;46.510;6.686;2023-07-20T09:02:50;96321.31;;;24.37;50.43
57594;BME280;43423;46.510;6.686;2023-07-20T09:05:17;96318.16;;;24.33;49.53
57594;BME280;43423;46.510;6.686;2023-07-20T09:07:43;96320.22;;;24.32;48.80
57594;BME280;43423;46.510;6.686;2023-07-20T09:10:09;96315.06;;;24.63;48.59
57594;BME280;43423;46.510;6.686;2023-07-20T09:12:37;96311.66;;;24.47;48.36
57594;BME280;43423;46.510;6.686;2023-07-20T09:15:04;96303.22;;;24.47;49.57
57594;BME280;43423;46.510;6.686;2023-07-20T09:17:30;96294.91;;;24.92;45.83
57594;BME280;43423;46.510;6.686;2023-07-20T09:19:55;96301.00;;;24.63;48.21
57594;BME280;43423;46.510;6.686;2023-07-20T09:22:21;96303.41;;;24.67;49.02
57594;BME280;43423;46.510;6.686;2023-07-20T09:24:47;96293.41;;;24.91;48.93
57594;BME280;43423;46.510;6.686;2023-07-20T09:27:12;96283.31;;;24.70;46.51
57594;BME280;43423;46.510;6.686;2023-07-20T09:29:48;96279.53;;;24.75;46.89
57594;BME280;43423;46.510;6.686;2023-07-20T09:32:18;96274.38;;;25.16;47.95
57594;BME280;43423;46.510;6.686;2023-07-20T09:34:45;96277.09;;;24.37;50.29
57594;BME280;43423;46.510;6.686;2023-07-20T09:37:10;96278.19;;;24.76;50.63
57594;BME280;43423;46.510;6.686;2023-07-20T09:39:43;96271.31;;;24.70;47.58
57594;BME280;43423;46.510;6.686;2023-07-20T09:42:11;96267.72;;;23.92;49.00
57594;BME280;43423;46.510;6.686;2023-07-20T09:44:38;96264.31;;;24.19;48.15
57594;BME280;43423;46.510;6.686;2023-07-20T09:47:04;96270.22;;;24.48;47.46
57594;BME280;43423;46.510;6.686;2023-07-20T09:49:30;96274.56;;;24.66;47.55
57594;BME280;43423;46.510;6.686;2023-07-20T09:51:57;96263.88;;;24.82;46.84
57594;BME280;43423;46.510;6.686;2023-07-20T09:54:24;96266.19;;;24.76;47.90
57594;BME280;43423;46.510;6.686;2023-07-20T09:56:52;96269.91;;;24.61;48.79
57594;BME280;43423;46.510;6.686;2023-07-20T09:59:18;96268.09;;;24.91;48.61
57594;BME280;43423;46.510;6.686;2023-07-20T10:01:45;96268.78;;;24.82;46.92
57594;BME280;43423;46.510;6.686;2023-07-20T10:04:11;96266.44;;;24.36;49.27
57594;BME280;43423;46.510;6.686;2023-07-20T10:06:42;96264.94;;;25.04;48.16
57594;BME280;43423;46.510;6.686;2023-07-20T10:09:07;96267.00;;;24.86;48.22
57594;BME280;43423;46.510;6.686;2023-07-20T10:11:36;96261.84;;;25.27;49.23
57594;BME280;43423;46.510;6.686;2023-07-20T10:14:04;96269.50;;;24.99;46.25
57594;BME280;43423;46.510;6.686;2023-07-20T10:16:39;96257.06;;;25.02;49.50
57594;BME280;43423;46.510;6.686;2023-07-20T10:19:27;96258.97;;;25.17;47.46
57594;BME280;43423;46.510;6.686;2023-07-20T10:22:00;96258.66;;;24.78;44.95
57594;BME280;43423;46.510;6.686;2023-07-20T10:24:29;96258.31;;;24.40;44.51
57594;BME280;43423;46.510;6.686;2023-07-20T10:26:57;96254.63;;;25.33;45.73
57594;BME280;43423;46.510;6.686;2023-07-20T10:29:23;96250.38;;;25.42;44.66
57594;BME280;43423;46.510;6.686;2023-07-20T10:31:50;96255.28;;;25.42;43.75
57594;BME280;43423;46.510;6.686;2023-07-20T10:34:16;96242.59;;;25.23;46.78
57594;BME280;43423;46.510;6.686;2023-07-20T10:36:46;96234.69;;;25.39;45.57
57594;BME280;43423;46.510;6.686;2023-07-20T10:39:28;96231.28;;;25.41;44.83
57594;BME280;43423;46.510;6.686;2023-07-20T10:42:09;96229.97;;;25.51;43.82
57594;BME280;43423;46.510;6.686;2023-07-20T10:44:39;96229.41;;;25.53;43.34
57594;BME280;43423;46.510;6.686;2023-07-20T10:47:10;96227.28;;;26.07;42.66
57594;BME280;43423;46.510;6.686;2023-07-20T10:49:57;96225.63;;;26.14;41.50
57594;BME280;43423;46.510;6.686;2023-07-20T10:52:23;96224.63;;;26.29;41.91
57594;BME280;43423;46.510;6.686;2023-07-20T10:54:49;96217.91;;;26.05;42.33
57594;BME280;43423;46.510;6.686;2023-07-20T10:57:23;96213.09;;;25.78;41.14
57594;BME280;43423;46.510;6.686;2023-07-20T10:59:49;96208.56;;;26.02;42.28
57594;BME280;43423;46.510;6.686;2023-07-20T11:02:17;96219.38;;;26.06;43.46
57594;BME280;43423;46.510;6.686;2023-07-20T11:04:47;96216.06;;;25.80;42.17
57594;BME280;43423;46.510;6.686;2023-07-20T11:07:17;96208.34;;;25.81;43.36
57594;BME280;43423;46.510;6.686;2023-07-20T11:09:42;96206.41;;;25.47;44.84
57594;BME280;43423;46.510;6.686;2023-07-20T11:14:40;96199.78;;;25.52;40.35
57594;BME280;43423;46.510;6.686;2023-07-20T11:17:13;96195.66;;;25.99;41.69
57594;BME280;43423;46.510;6.686;2023-07-20T11:19:39;96187.97;;;26.19;42.51
57594;BME280;43423;46.510;6.686;2023-07-20T11:22:09;96193.88;;;25.94;42.03
57594;BME280;43423;46.510;6.686;2023-07-20T11:24:38;96182.00;;;25.96;41.83
57594;BME280;43423;46.510;6.686;2023-07-20T11:27:04;96186.13;;;25.75;42.50
57594;BME280;43423;46.510;6.686;2023-07-20T11:29:30;96185.44;;;26.04;39.75
57594;BME280;43423;46.510;6.686;2023-07-20T11:31:56;96176.97;;;26.13;41.83
57594;BME280;43423;46.510;6.686;2023-07-20T11:34:22;96173.25;;;25.55;40.50
57594;BME280;43423;46.510;6.686;2023-07-20T11:36:49;96179.16;;;25.76;41.95
57594;BME280;43423;46.510;6.686;2023-07-20T11:39:16;96174.53;;;25.71;42.43
57594;BME280;43423;46.510;6.686;2023-07-20T11:41:53;96169.25;;;25.95;41.37
57594;BME280;43423;46.510;6.686;2023-07-20T11:44:20;96169.41;;;25.97;41.99
57594;BME280;43423;46.510;6.686;2023-07-20T11:47:09;96168.69;;;25.59;41.67
57594;BME280;43423;46.510;6.686;2023-07-20T11:49:40;96155.75;;;25.93;40.38
57594;BME280;43423;46.510;6.686;2023-07-20T11:52:09;96155.75;;;25.93;40.92
57594;BME280;43423;46.510;6.686;2023-07-20T11:54:37;96154.66;;;25.69;41.65
57594;BME280;43423;46.510;6.686;2023-07-20T11:57:03;96145.78;;;25.82;41.36
57594;BME280;43423;46.510;6.686;2023-07-20T11:59:31;96138.72;;;26.01;39.46
57594;BME280;43423;46.510;6.686;2023-07-20T12:01:58;96138.91;;;25.66;41.30
57594;BME280;43423;46.510;6.686;2023-07-20T12:04:26;96132.00;;;25.77;39.77
57594;BME280;43423;46.510;6.686;2023-07-20T12:06:53;96135.91;;;26.30;39.41
57594;BME280;43423;46.510;6.686;2023-07-20T12:09:19;96130.28;;;26.10;39.54
57594;BME280;43423;46.510;6.686;2023-07-20T12:11:49;96124.94;;;25.95;39.49
57594;BME280;43423;46.510;6.686;2023-07-20T12:14:14;96115.88;;;26.06;39.39
57594;BME280;43423;46.510;6.686;2023-07-20T12:16:40;96109.06;;;26.09;40.34
57594;BME280;43423;46.510;6.686;2023-07-20T12:19:10;96104.59;;;25.77;41.18
57594;BME280;43423;46.510;6.686;2023-07-20T12:21:38;96105.50;;;25.89;39.68
57594;BME280;43423;46.510;6.686;2023-07-20T12:24:05;96101.81;;;26.16;39.31
57594;BME280;43423;46.510;6.686;2023-07-20T12:26:32;96099.84;;;25.89;40.80
57594;BME280;43423;46.510;6.686;2023-07-20T12:28:58;96100.31;;;26.05;39.94
57594;BME280;43423;46.510;6.686;2023-07-20T12:31:25;96108.44;;;26.69;37.68
57594;BME280;43423;46.510;6.686;2023-07-20T12:33:51;96105.97;;;26.34;39.50
57594;BME280;43423;46.510;6.686;2023-07-20T12:36:18;96100.31;;;25.86;38.69
57594;BME280;43423;46.510;6.686;2023-07-20T12:38:44;96093.94;;;25.85;41.75
57594;BME280;43423;46.510;6.686;2023-07-20T12:41:11;96087.84;;;25.89;39.77
57594;BME280;43423;46.510;6.686;2023-07-20T12:43:40;96090.66;;;25.33;38.95
57594;BME280;43423;46.510;6.686;2023-07-20T12:46:07;96086.25;;;26.15;38.31
57594;BME280;43423;46.510;6.686;2023-07-20T12:48:32;96091.84;;;25.96;37.31
57594;BME280;43423;46.510;6.686;2023-07-20T12:50:58;96084.44;;;26.58;38.71
57594;BME280;43423;46.510;6.686;2023-07-20T12:53:24;96087.13;;;26.56;37.46
57594;BME280;43423;46.510;6.686;2023-07-20T12:55:49;96083.56;;;26.17;37.11
57594;BME280;43423;46.510;6.686;2023-07-20T12:58:15;96084.44;;;26.29;36.77
57594;BME280;43423;46.510;6.686;2023-07-20T13:00:41;96089.19;;;26.46;39.10
57594;BME280;43423;46.510;6.686;2023-07-20T13:03:07;96083.88;;;26.02;34.28
57594;BME280;43423;46.510;6.686;2023-07-20T13:05:34;96078.50;;;26.06;34.21
57594;BME280;43423;46.510;6.686;2023-07-20T13:08:01;96074.81;;;25.84;34.20
57594;BME280;43423;46.510;6.686;2023-07-20T13:10:27;96070.66;;;25.95;33.30